馬祖南竿航空站 - ATIS

METAR RCFG 011100Z 04017KT 010V070 8000 FEW005 BKN012 BKN020 11/11 Q1025 NOSIG RMK 03018G29KT/R21 MAX WND 25KT/R03 35020G32KT/NJL A3028(C)=

站台狀態:Online
最後更新:2022-12-02 01:00:01